Accueil
METAR-TAF:

METAR-TAF

Aéroports :

Clayton Lake, Maine, États-Unis

latitude: 46-37N, longitude: 069-32W, altitude: 314 m

Observation

Le bulletin a été fait il y a 1 heure et 25 minutes, à 12:16 UTC
Vent 2 kt de direction variable
Température 5°C
Humidité 65%
Pression 1018 hPa

METAR: K40B 011216Z AUTO VRB02KT 05/M01 A3006 RMK AO1 SLP200 T00521005 10056 21022 52009 60000 70003

Heure: 09:41 (13:41 UTC)


TAF: absent

Observations et prévisions météorologiques de plus de 4000 aéroports (messages METAR et TAF).

Les stations disponibles sont représentées par des disques jaunes et rouges sur la carte.

Passer la souris dessus pour voir le nom de la station.

Cliquer dessus pour voir les observations et prévisions météorologiques.

Pour changer de carte: cliquez sur les boutons verts avec une croix noire pour zoomer, sur le bouton vert avec un tiret pour effectuer un zoom arrière, ou sur les flèches vertes pour les cartes adjacentes.


METAR-TAF: